Latest Weather Observations for Green Cape

IDN60801

Issued at 4:34 am EDT Sunday 1 February 2015 (issued every 30 minutes, with the page automatically refreshed every 10 minutes)

About weather observations | Map of weather stations | Latest weather observations for NSW | Other Formats
Station Details ID: 069137 Name: GREEN CAPE AWS Lat: -37.26 Lon: 150.05 Height: 19.4 m
Data from the previous 72 hours. | See also: Recent months at Green Cape
Date/Time
EDT
Temp
°C
App
Temp
°C
Dew
Point
Rel
Hum
%
Delta-T
°C
Wind Press
QNH
hPa
Press
MSL
hPa
Rain
since 9 am
mm
Dir
 
Spd
km/h
Gust
km/h
Spd
kts
Gust
kts
01/04:30am 16.5 12.1 14.2 86 1.3 SW 30 39 16 21 1008.4 1008.3 0.2
01/04:00am 16.5 11.6 14.3 87 1.3 SW 33 39 18 21 1008.1 1008.0 0.2
01/03:30am 16.6 11.7 14.4 87 1.3 SW 33 39 18 21 1008.1 1008.0 0.2
01/03:00am 16.6 11.9 14.8 89 1.0 SW 33 39 18 21 1008.0 1007.9 0.2
01/02:30am 16.3 11.6 14.3 88 1.1 SW 32 35 17 19 1008.1 1008.0 0.2
01/02:00am 16.5 12.2 14.3 87 1.3 WSW 30 35 16 19 1008.6 1008.5 0.2
01/01:30am 16.7 12.8 14.3 86 1.4 WSW 28 33 15 18 1008.9 1008.8 0.2
01/01:00am 16.9 12.5 14.2 84 1.5 SW 30 35 16 19 1009.0 1008.9 0.2
01/12:30am 16.8 12.9 14.3 85 1.4 WSW 28 33 15 18 1009.1 1009.0 0.2
01/12:00am 16.9 12.2 14.2 84 1.5 SW 32 37 17 20 1009.3 1009.2 0.2
 
Date/Time
EDT
Temp
°C
App
Temp
°C
Dew
Point
Rel
Hum
%
Delta-T
°C
Wind Press
QNH
hPa
Press
MSL
hPa
Rain
since 9 am
mm
Dir
 
Spd
km/h
Gust
km/h
Spd
kts
Gust
kts
31/11:30pm 16.8 12.3 13.9 83 1.6 SW 30 37 16 20 1009.3 1009.2 0.2
31/11:00pm 17.0 12.6 14.1 83 1.7 WSW 30 37 16 20 1009.4 1009.3 0.2
31/10:30pm 17.4 13.1 14.3 82 1.8 WSW 30 35 16 19 1009.6 1009.5 0.2
31/10:00pm 17.2 12.2 14.1 82 1.8 WSW 33 39 18 21 1009.3 1009.2 0.2
31/09:30pm 17.2 12.5 14.3 83 1.7 WSW 32 39 17 21 1009.1 1009.0 0.2
31/09:00pm 17.3 12.6 14.4 83 1.7 WSW 32 37 17 20 1008.9 1008.8 0.2
31/08:30pm 17.5 12.3 14.4 82 1.8 WSW 35 41 19 22 1008.5 1008.4 0.2
31/08:00pm 17.3 12.4 14.2 82 1.8 WSW 33 41 18 22 1008.2 1008.1 0.2
31/07:30pm 17.1 11.7 14.0 82 1.8 WSW 35 43 19 23 1008.1 1008.0 0.2
31/07:00pm 17.0 12.2 14.6 86 1.4 WSW 33 41 18 22 1007.8 1007.7 0.2
31/06:30pm 17.6 12.2 14.9 84 1.6 WSW 37 43 20 23 1007.5 1007.4 0.2
31/06:00pm 17.7 13.6 14.8 83 1.7 WSW 30 35 16 19 1007.1 1007.0 0.2
31/05:30pm 17.8 13.0 14.7 82 1.8 WSW 33 39 18 21 1007.0 1006.9 0.2
31/05:00pm 18.6 11.9 14.5 77 2.4 WSW 43 52 23 28 1006.8 1006.7 0.2
31/04:30pm 18.2 11.8 14.3 78 2.2 WSW 41 50 22 27 1006.8 1006.7 0.2
31/04:00pm 18.7 12.4 14.6 77 2.4 SW 41 54 22 29 1006.8 1006.7 0.2
31/03:30pm 17.8 11.8 14.5 81 1.9 SW 39 46 21 25 1006.6 1006.5 0.2
31/03:00pm 18.1 10.6 13.8 76 2.5 WSW 46 57 25 31 1006.5 1006.4 0.2
31/02:30pm 18.9 11.9 14.2 74 2.7 WSW 44 54 24 29 1006.4 1006.3 0.0
31/02:00pm 18.0 10.9 13.9 77 2.3 WSW 44 56 24 30 1006.6 1006.5 0.0
31/01:30pm 18.0 10.8 13.7 76 2.4 WSW 44 57 24 31 1006.5 1006.4 0.0
31/01:00pm 18.1 11.9 13.8 76 2.5 WSW 39 50 21 27 1006.6 1006.5 0.0
31/12:30pm 18.0 12.1 13.7 76 2.4 WSW 37 46 20 25 1006.9 1006.8 0.0
31/12:00pm 17.5 10.3 13.2 76 2.4 WSW 43 54 23 29 1006.9 1006.8 0.0
31/11:30am 17.3 9.9 13.2 77 2.3 WSW 44 52 24 28 1006.8 1006.7 0.0
31/11:00am 17.2 10.1 13.3 78 2.2 WSW 43 57 23 31 1006.8 1006.7 0.0
31/10:30am 17.0 11.3 13.1 78 2.2 WSW 35 44 19 24 1007.1 1007.0 0.0
31/10:00am 16.7 10.7 13.2 80 2.0 WSW 37 46 20 25 1007.0 1006.9 0.0
31/09:30am 16.0 9.9 12.9 82 1.7 WSW 37 46 20 25 1007.1 1007.0 0.0
31/09:00am 16.0 9.5 12.9 82 1.7 WSW 39 50 21 27 1007.0 1006.9 2.6
31/08:30am 15.9 10.6 13.2 84 1.5 WSW 33 46 18 25 1007.0 1006.9 2.6
31/08:00am 15.9 10.6 13.2 84 1.5 WSW 33 43 18 23 1006.8 1006.7 2.6
31/07:30am 15.8 10.2 13.3 85 1.4 WSW 35 43 19 23 1006.6 1006.5 2.6
31/07:00am 15.8 9.8 13.3 85 1.4 WSW 37 48 20 26 1006.3 1006.2 2.6
31/06:30am 15.8 10.6 13.5 86 1.3 WSW 33 41 18 22 1006.0 1005.9 2.6
31/06:00am 15.8 10.3 13.6 87 1.2 WSW 35 43 19 23 1005.9 1005.8 2.6
31/05:30am 15.8 9.9 13.6 87 1.2 WSW 37 46 20 25 1005.7 1005.6 2.6
31/05:00am 15.5 9.6 13.7 89 1.0 WSW 37 46 20 25 1005.7 1005.6 2.6
31/04:30am 15.7 10.7 13.9 89 1.0 WSW 33 44 18 24 1005.8 1005.7 2.6
31/04:00am 15.5 9.6 13.7 89 1.0 WSW 37 44 20 24 1005.6 1005.5 2.6
31/03:30am 15.8 9.7 14.0 89 1.0 WSW 39 50 21 27 1005.8 1005.7 2.6
31/03:00am 15.4 9.5 13.6 89 1.0 WSW 37 44 20 24 1006.1 1006.0 2.6
31/02:30am 15.4 8.8 13.6 89 1.0 WSW 41 50 22 27 1006.2 1006.1 2.6
31/02:00am 15.5 8.9 13.7 89 1.0 WSW 41 50 22 27 1006.3 1006.2 2.6
31/01:30am 15.5 9.0 13.9 90 0.9 WSW 41 50 22 27 1006.4 1006.3 2.6
31/01:00am 15.3 9.1 13.8 91 0.8 WSW 39 50 21 27 1006.8 1006.7 2.6
31/12:30am 15.6 9.9 14.1 91 0.8 WSW 37 48 20 26 1007.2 1007.1 2.6
31/12:00am 15.4 9.6 13.9 91 0.8 WSW 37 48 20 26 1007.2 1007.1 2.6
 
Date/Time
EDT
Temp
°C
App
Temp
°C
Dew
Point
Rel
Hum
%
Delta-T
°C
Wind Press
QNH
hPa
Press
MSL
hPa
Rain
since 9 am
mm
Dir
 
Spd
km/h
Gust
km/h
Spd
kts
Gust
kts
30/11:30pm 15.3 9.5 13.8 91 0.8 WSW 37 46 20 25 1007.2 1007.1 2.6
30/11:00pm 15.3 9.2 14.0 92 0.7 WSW 39 50 21 27 1007.4 1007.3 2.6
30/10:30pm 15.4 9.4 14.3 93 0.6 WSW 39 48 21 26 1007.7 1007.6 2.6
30/10:00pm 15.4 8.6 14.3 93 0.6 WSW 43 54 23 29 1007.8 1007.7 2.6
30/09:30pm 15.4 9.0 14.3 93 0.6 WSW 41 50 22 27 1007.7 1007.6 2.4
30/09:00pm 15.6 9.6 14.5 93 0.6 WSW 39 46 21 25 1007.2 1007.1 2.4
30/08:30pm 15.7 9.3 14.4 92 0.7 WSW 41 50 22 27 1007.1 1007.0 2.4
30/08:00pm 16.1 10.2 14.8 92 0.7 WSW 39 46 21 25 1006.9 1006.8 2.2
30/07:30pm 16.4 11.5 15.3 93 0.6 SW 35 54 19 29 1006.7 1006.6 2.2
30/07:27pm 16.1 11.1 15.0 93 0.6 WSW 35 54 19 29 1006.7 1006.6 2.2
30/07:00pm 16.4 9.7 15.1 92 0.8 SW 44 54 24 29 1006.3 1006.2 2.0
30/06:30pm 16.4 11.0 15.1 92 0.8 SW 37 46 20 25 1006.2 1006.1 1.8
30/06:00pm 16.8 9.4 15.2 90 0.9 SW 48 59 26 32 1005.9 1005.8 1.6
30/05:30pm 16.7 9.4 15.6 93 0.6 SW 48 59 26 32 1005.9 1005.8 1.6
30/05:00pm 16.9 10.7 15.8 93 0.6 SW 43 52 23 28 1006.1 1006.0 1.6
30/04:30pm 16.8 10.3 15.5 92 0.8 SW 44 54 24 29 1006.2 1006.1 1.4
30/04:00pm 17.1 10.1 15.4 90 1.0 SW 46 59 25 32 1006.2 1006.1 1.0
30/03:30pm 17.5 10.5 15.3 87 1.3 SW 46 61 25 33 1006.0 1005.9 1.0
30/03:00pm 17.6 9.4 15.2 86 1.4 SSW 52 61 28 33 1005.9 1005.8 1.0
30/02:30pm 18.5 11.5 15.2 81 1.9 SW 46 59 25 32 1005.9 1005.8 1.0
30/02:00pm 18.0 9.5 15.3 84 1.6 SW 54 67 29 36 1006.0 1005.9 1.0
30/01:49pm 18.1 12.7 15.9 87 1.3 SW 39 61 21 33 1006.0 1005.9 1.0
30/01:30pm 18.0 11.8 15.8 87 1.3 SW 43 52 23 28 1006.4 1006.3 1.0
30/01:00pm 17.3 9.3 15.8 91 0.9 SSW 52 65 28 35 1006.5 1006.4 1.0
30/12:30pm 17.3 10.0 15.5 89 1.1 SW 48 57 26 31 1006.7 1006.6 0.8
30/12:00pm 17.8 11.4 16.0 89 1.1 SW 44 57 24 31 1006.9 1006.8 0.8
30/11:30am 16.7 10.4 15.6 93 0.6 SW 43 52 23 28 1007.0 1006.9 0.8
30/11:00am 16.2 9.5 15.1 93 0.6 SW 44 54 24 29 1007.3 1007.2 0.8
30/10:30am 16.4 9.4 15.3 93 0.6 SW 46 56 25 30 1007.3 1007.2 0.4
30/10:00am 16.2 8.2 14.7 91 0.9 SW 50 59 27 32 1007.5 1007.4 0.2
30/09:50am 16.6 10.0 14.8 89 1.0 SW 43 61 23 33 1007.6 1007.5 0.0
30/09:30am 16.7 9.1 14.7 88 1.2 SW 48 59 26 32 1007.5 1007.4 0.0
30/09:00am 16.6 10.4 14.8 89 1.0 SW 41 52 22 28 1007.8 1007.7 7.6
30/08:30am 15.8 8.8 14.3 91 0.9 SW 44 57 24 31 1007.9 1007.8 7.6
30/08:00am 15.8 10.1 14.3 91 0.9 SW 37 46 20 25 1008.2 1008.1 7.4
30/07:30am 15.7 9.6 14.1 90 0.9 SW 39 57 21 31 1008.0 1007.9 7.2
30/07:00am 15.6 8.7 14.0 90 0.9 SW 43 56 23 30 1007.9 1007.8 7.2
30/06:30am 15.3 7.4 13.7 90 0.9 SW 48 57 26 31 1007.8 1007.7 7.2
30/06:00am 15.2 7.2 13.4 89 1.0 SW 48 59 26 32 1008.0 1007.9 7.0
30/05:30am 15.2 7.2 13.4 89 1.0 SW 48 56 26 30 1008.0 1007.9 7.0
30/05:00am 15.1 8.0 13.3 89 1.0 SW 43 54 23 29 1008.2 1008.1 7.0
30/04:30am 15.5 8.2 13.5 88 1.1 SW 44 57 24 31 1008.5 1008.4 6.8
30/04:00am 15.3 8.0 13.5 89 1.0 SW 44 54 24 29 1008.9 1008.8 6.8
30/03:30am 15.3 7.4 13.7 90 0.9 SW 48 57 26 31 1009.1 1009.0 6.8
30/03:00am 15.3 7.5 14.0 92 0.7 SW 48 59 26 32 1009.4 1009.3 6.8
30/02:30am 15.0 7.9 13.9 93 0.6 SW 44 54 24 29 1009.9 1009.8 6.8
30/02:00am 15.1 7.7 14.1 94 0.6 SW 46 57 25 31 1010.2 1010.1 6.6
30/01:30am 14.8 6.5 13.7 93 0.6 SSW 50 59 27 32 1010.3 1010.2 6.4
30/01:00am 15.4 8.3 13.4 88 1.1 SW 43 57 23 31 1010.5 1010.4 5.4
30/12:30am 15.8 10.3 13.6 87 1.2 SW 35 46 19 25 1011.0 1010.9 5.2
30/12:11am 15.7 9.4 13.4 86 1.3 SW 39 56 21 30 1011.4 1011.3 5.2
30/12:00am 15.6 8.4 13.1 85 1.4 SW 43 56 23 30 1011.0 1010.9 5.2
 
Date/Time
EDT
Temp
°C
App
Temp
°C
Dew
Point
Rel
Hum
%
Delta-T
°C
Wind Press
QNH
hPa
Press
MSL
hPa
Rain
since 9 am
mm
Dir
 
Spd
km/h
Gust
km/h
Spd
kts
Gust
kts
29/11:30pm 15.3 8.0 13.5 89 1.0 SW 44 54 24 29 1011.3 1011.2 5.2
29/11:06pm 15.8 8.1 13.3 85 1.4 SW 46 67 25 36 1011.2 1011.1 5.0
29/11:00pm 16.3 9.2 13.4 83 1.6 SW 43 54 23 29 1011.7 1011.6 4.8
29/10:30pm 16.9 8.0 13.2 79 2.1 SSW 52 63 28 34 1011.7 1011.6 4.8
29/10:00pm 17.1 10.3 13.2 78 2.2 SW 41 48 22 26 1012.1 1012.0 4.8
29/09:30pm 16.9 9.1 14.0 83 1.6 SSW 48 61 26 33 1012.2 1012.1 4.8
29/09:00pm 17.4 9.2 12.9 75 2.5 SSW 48 57 26 31 1012.0 1011.9 4.8
29/08:30pm 17.0 9.7 13.3 79 2.1 SSW 44 52 24 28 1012.1 1012.0 4.8
29/08:00pm 16.6 8.6 13.5 82 1.7 SW 48 57 26 31 1012.1 1012.0 4.8
29/07:30pm 17.8 8.7 12.5 71 2.9 SSW 52 59 28 32 1011.7 1011.6 4.8
29/07:00pm 17.9 8.3 12.1 69 3.2 SSW 54 65 29 35 1011.6 1011.5 4.8
29/06:30pm 18.1 8.9 12.3 69 3.2 SSW 52 65 28 35 1011.8 1011.7 4.8
29/06:00pm 18.2 8.7 12.4 69 3.2 SSW 54 63 29 34 1011.9 1011.8 4.8
29/05:30pm 18.5 9.5 12.7 69 3.2 SSW 52 65 28 35 1011.9 1011.8 4.8
29/05:00pm 18.7 9.8 13.1 70 3.2 SSW 52 63 28 34 1011.9 1011.8 4.8
29/04:30pm 18.7 9.5 13.3 71 3.1 SSW 54 63 29 34 1012.1 1012.0 4.8
29/04:00pm 18.2 10.4 12.9 71 3.0 SSW 46 61 25 33 1012.2 1012.1 4.8
29/03:30pm 17.3 11.8 14.6 84 1.6 SW 37 46 20 25 1013.1 1013.0 4.8
29/03:00pm 17.0 11.5 13.7 81 1.9 SW 35 43 19 23 1013.5 1013.4 4.6
29/02:30pm 16.1 10.9 14.6 91 0.9 SW 35 43 19 23 1013.5 1013.4 4.6
29/02:00pm 16.0 6.7 12.9 82 1.7 SSW 54 63 29 34 1013.8 1013.7 3.8
29/01:30pm 17.3 9.3 13.4 78 2.2 SSW 48 57 26 31 1013.4 1013.3 3.8
29/01:00pm 18.6 13.1 13.5 72 2.9 SW 35 41 19 22 1013.9 1013.8 3.8
29/12:30pm 17.2 12.6 15.2 88 1.2 SW 33 39 18 21 1014.2 1014.1 3.8
29/12:00pm 15.5 8.1 14.2 92 0.7 SSW 46 57 25 31 1014.6 1014.5 3.6
29/11:43am 16.0 11.1 13.7 86 1.3 SSW 32 52 17 28 1014.8 1014.7 2.6
29/11:30am 17.3 12.9 14.2 82 1.8 SW 30 35 16 19 1014.6 1014.5 2.0
29/11:00am 16.0 13.2 14.4 90 0.9 WSW 22 28 12 15 1015.4 1015.3 2.0
29/10:30am 15.2 11.2 14.1 93 0.6 WSW 28 33 15 18 1015.3 1015.2 1.8
29/10:00am 14.8 11.8 13.8 94 0.6 SSW 22 26 12 14 1015.4 1015.3 1.8
29/09:45am 13.9 9.8 12.8 93 0.6 SSW 26 35 14 19 1015.7 1015.6 1.8
29/09:30am 14.1 7.8 12.3 89 1.0 S 37 52 20 28 1015.6 1015.5 1.4
29/09:25am 14.4 8.8 11.6 83 1.5 SSW 32 52 17 28 1015.4 1015.3 1.2
29/09:24am 15.5 10.1 12.1 80 1.9 SW 32 52 17 28 1015.2 1015.1 0.8
29/09:00am 16.6 11.1 12.0 74 2.5 SW 32 37 17 20 1015.3 1015.2 2.0
29/08:30am 16.4 10.8 12.0 75 2.4 SSW 33 43 18 23 1014.8 1014.7 2.0
29/08:00am 16.0 10.5 12.4 79 2.0 SW 33 39 18 21 1014.7 1014.6 2.0
29/07:30am 15.3 9.3 12.2 82 1.7 SW 35 39 19 21 1014.7 1014.6 2.0
29/07:00am 16.9 13.2 12.6 76 2.4 SSW 24 33 13 18 1014.7 1014.6 2.0
29/06:30am 16.6 11.6 12.2 75 2.4 S 30 37 16 20 1014.4 1014.3 2.0
29/06:00am 16.4 11.6 12.8 79 2.0 S 30 37 16 20 1014.3 1014.2 2.0
29/05:30am 16.4 10.4 12.2 76 2.3 S 35 41 19 22 1014.2 1014.1 2.0
29/05:00am 16.3 10.9 12.3 77 2.2 S 32 39 17 21 1014.0 1013.9 1.8

Other Formats:

Comma delimited format used in spreadsheet applications
http://www.bom.gov.au/fwo/IDN60801/IDN60801.94934.axf

JavaScript Object Notation format (JSON) in row-major order
http://www.bom.gov.au/fwo/IDN60801/IDN60801.94934.json